sensor_id;sensor_type;location;lat;lon;timestamp;pressure;altitude;pressure_sealevel;temperature;humidity
2397;BME280;1209;48.410;9.054;2023-04-09T00:00:15;96831.38;;;6.71;100.00
2397;BME280;1209;48.410;9.054;2023-04-09T00:02:40;96823.97;;;6.57;100.00
2397;BME280;1209;48.410;9.054;2023-04-09T00:05:06;96824.81;;;6.67;100.00
2397;BME280;1209;48.410;9.054;2023-04-09T00:07:32;96826.28;;;6.60;100.00
2397;BME280;1209;48.410;9.054;2023-04-09T00:09:57;96830.69;;;6.69;100.00
2397;BME280;1209;48.410;9.054;2023-04-09T00:12:22;96831.78;;;6.76;100.00
2397;BME280;1209;48.410;9.054;2023-04-09T00:14:47;96826.72;;;6.75;100.00
2397;BME280;1209;48.410;9.054;2023-04-09T00:17:13;96827.69;;;6.64;100.00
2397;BME280;1209;48.410;9.054;2023-04-09T00:19:38;96822.09;;;6.69;100.00
2397;BME280;1209;48.410;9.054;2023-04-09T00:22:03;96825.47;;;6.50;100.00
2397;BME280;1209;48.410;9.054;2023-04-09T00:24:29;96823.16;;;6.56;100.00
2397;BME280;1209;48.410;9.054;2023-04-09T00:26:54;96830.66;;;6.59;100.00
2397;BME280;1209;48.410;9.054;2023-04-09T00:29:19;96828.09;;;6.69;100.00
2397;BME280;1209;48.410;9.054;2023-04-09T00:31:45;96826.72;;;6.75;100.00
2397;BME280;1209;48.410;9.054;2023-04-09T00:34:10;96822.63;;;6.82;100.00
2397;BME280;1209;48.410;9.054;2023-04-09T00:36:35;96825.63;;;6.77;100.00
2397;BME280;1209;48.410;9.054;2023-04-09T00:39:00;96820.84;;;6.82;100.00
2397;BME280;1209;48.410;9.054;2023-04-09T00:41:26;96814.16;;;6.89;100.00
2397;BME280;1209;48.410;9.054;2023-04-09T00:43:51;96815.09;;;6.59;100.00
2397;BME280;1209;48.410;9.054;2023-04-09T00:46:16;96811.94;;;6.56;100.00
2397;BME280;1209;48.410;9.054;2023-04-09T00:48:42;96817.16;;;6.75;100.00
2397;BME280;1209;48.410;9.054;2023-04-09T00:51:07;96816.34;;;6.84;100.00
2397;BME280;1209;48.410;9.054;2023-04-09T00:53:33;96817.84;;;6.77;100.00
2397;BME280;1209;48.410;9.054;2023-04-09T00:55:59;96806.66;;;6.77;100.00
2397;BME280;1209;48.410;9.054;2023-04-09T00:58:25;96815.81;;;6.71;100.00
2397;BME280;1209;48.410;9.054;2023-04-09T01:00:51;96812.25;;;6.72;100.00
2397;BME280;1209;48.410;9.054;2023-04-09T01:03:16;96821.00;;;6.71;100.00
2397;BME280;1209;48.410;9.054;2023-04-09T01:05:50;96815.81;;;6.71;100.00
2397;BME280;1209;48.410;9.054;2023-04-09T01:10:59;96814.16;;;6.80;100.00
2397;BME280;1209;48.410;9.054;2023-04-09T01:13:37;96818.94;;;6.75;100.00
2397;BME280;1209;48.410;9.054;2023-04-09T01:16:04;96813.63;;;6.76;100.00
2397;BME280;1209;48.410;9.054;2023-04-09T01:18:35;96809.78;;;6.71;100.00
2397;BME280;1209;48.410;9.054;2023-04-09T01:21:11;96812.09;;;6.54;100.00
2397;BME280;1209;48.410;9.054;2023-04-09T01:23:48;96811.16;;;6.65;100.00
2397;BME280;1209;48.410;9.054;2023-04-09T01:28:59;96806.75;;;6.56;100.00
2397;BME280;1209;48.410;9.054;2023-04-09T01:31:32;96809.22;;;6.48;100.00
2397;BME280;1209;48.410;9.054;2023-04-09T01:34:00;96809.22;;;6.57;100.00
2397;BME280;1209;48.410;9.054;2023-04-09T01:36:27;96803.75;;;6.51;100.00
2397;BME280;1209;48.410;9.054;2023-04-09T01:38:55;96811.13;;;6.46;100.00
2397;BME280;1209;48.410;9.054;2023-04-09T01:41:21;96817.81;;;6.39;100.00
2397;BME280;1209;48.410;9.054;2023-04-09T01:43:49;96808.41;;;6.47;100.00
2397;BME280;1209;48.410;9.054;2023-04-09T01:46:17;96819.72;;;6.46;100.00
2397;BME280;1209;48.410;9.054;2023-04-09T01:48:43;96822.31;;;6.37;100.00
2397;BME280;1209;48.410;9.054;2023-04-09T01:51:10;96817.66;;;6.21;100.00
2397;BME280;1209;48.410;9.054;2023-04-09T01:53:38;96825.72;;;6.18;100.00
2397;BME280;1209;48.410;9.054;2023-04-09T01:56:03;96824.19;;;6.15;100.00
2397;BME280;1209;48.410;9.054;2023-04-09T01:58:29;96813.56;;;6.18;100.00
2397;BME280;1209;48.410;9.054;2023-04-09T02:01:31;96817.81;;;6.39;100.00
2397;BME280;1209;48.410;9.054;2023-04-09T02:04:01;96817.00;;;6.48;100.00
2397;BME280;1209;48.410;9.054;2023-04-09T02:06:37;96811.53;;;6.51;100.00
2397;BME280;1209;48.410;9.054;2023-04-09T02:09:06;96816.19;;;6.47;100.00
2397;BME280;1209;48.410;9.054;2023-04-09T02:11:33;96820.00;;;6.53;100.00
2397;BME280;1209;48.410;9.054;2023-04-09T02:14:02;96813.31;;;6.60;100.00
2397;BME280;1209;48.410;9.054;2023-04-09T02:16:30;96814.13;;;6.51;100.00
2397;BME280;1209;48.410;9.054;2023-04-09T02:18:55;96817.94;;;6.37;100.00
2397;BME280;1209;48.410;9.054;2023-04-09T02:21:24;96803.63;;;6.43;100.00
2397;BME280;1209;48.410;9.054;2023-04-09T02:23:51;96809.50;;;6.35;100.00
2397;BME280;1209;48.410;9.054;2023-04-09T02:26:16;96807.84;;;6.44;100.00
2397;BME280;1209;48.410;9.054;2023-04-09T02:28:41;96815.38;;;6.56;100.00
2397;BME280;1209;48.410;9.054;2023-04-09T02:31:07;96811.00;;;6.57;100.00
2397;BME280;1209;48.410;9.054;2023-04-09T02:33:32;96808.41;;;6.57;100.00
2397;BME280;1209;48.410;9.054;2023-04-09T02:35:57;96807.06;;;6.62;100.00
2397;BME280;1209;48.410;9.054;2023-04-09T02:38:23;96806.22;;;6.62;100.00
2397;BME280;1209;48.410;9.054;2023-04-09T02:40:48;96806.09;;;6.63;100.00
2397;BME280;1209;48.410;9.054;2023-04-09T02:43:13;96796.78;;;6.61;100.00
2397;BME280;1209;48.410;9.054;2023-04-09T02:45:39;96803.75;;;6.60;100.00
2397;BME280;1209;48.410;9.054;2023-04-09T02:48:04;96806.94;;;6.64;100.00
2397;BME280;1209;48.410;9.054;2023-04-09T02:50:30;96805.00;;;6.56;100.00
2397;BME280;1209;48.410;9.054;2023-04-09T02:52:55;96808.56;;;6.65;100.00
2397;BME280;1209;48.410;9.054;2023-04-09T02:55:20;96805.84;;;6.67;100.00
2397;BME280;1209;48.410;9.054;2023-04-09T02:57:45;96804.03;;;6.57;100.00
2397;BME280;1209;48.410;9.054;2023-04-09T03:00:11;96804.84;;;6.58;100.00
2397;BME280;1209;48.410;9.054;2023-04-09T03:02:37;96794.19;;;6.61;100.00
2397;BME280;1209;48.410;9.054;2023-04-09T03:05:03;96796.66;;;6.53;100.00
2397;BME280;1209;48.410;9.054;2023-04-09T03:07:28;96792.69;;;6.58;100.00
2397;BME280;1209;48.410;9.054;2023-04-09T03:09:53;96797.50;;;6.63;100.00
2397;BME280;1209;48.410;9.054;2023-04-09T03:12:19;96788.50;;;6.67;100.00
2397;BME280;1209;48.410;9.054;2023-04-09T03:14:44;96794.06;;;6.53;100.00
2397;BME280;1209;48.410;9.054;2023-04-09T03:17:09;96789.56;;;6.55;100.00
2397;BME280;1209;48.410;9.054;2023-04-09T03:19:35;96784.50;;;6.53;100.00
2397;BME280;1209;48.410;9.054;2023-04-09T03:22:00;96789.28;;;6.48;100.00
2397;BME280;1209;48.410;9.054;2023-04-09T03:24:25;96788.75;;;6.35;100.00
2397;BME280;1209;48.410;9.054;2023-04-09T03:26:51;96791.47;;;6.34;100.00
2397;BME280;1209;48.410;9.054;2023-04-09T03:29:16;96785.19;;;6.46;100.00
2397;BME280;1209;48.410;9.054;2023-04-09T03:31:41;96786.69;;;6.39;100.00
2397;BME280;1209;48.410;9.054;2023-04-09T03:34:06;96791.06;;;6.28;100.00
2397;BME280;1209;48.410;9.054;2023-04-09T03:36:32;96779.19;;;6.26;100.00
2397;BME280;1209;48.410;9.054;2023-04-09T03:38:57;96789.53;;;6.16;100.00
2397;BME280;1209;48.410;9.054;2023-04-09T03:41:25;96783.75;;;6.03;100.00
2397;BME280;1209;48.410;9.054;2023-04-09T03:43:50;96785.31;;;6.15;100.00
2397;BME280;1209;48.410;9.054;2023-04-09T03:46:17;96780.28;;;6.23;100.00
2397;BME280;1209;48.410;9.054;2023-04-09T03:48:43;96780.81;;;6.17;100.00
2397;BME280;1209;48.410;9.054;2023-04-09T03:51:15;96789.00;;;6.22;100.00
2397;BME280;1209;48.410;9.054;2023-04-09T03:53:40;96775.09;;;6.23;100.00
2397;BME280;1209;48.410;9.054;2023-04-09T03:56:06;96784.09;;;6.19;100.00
2397;BME280;1209;48.410;9.054;2023-04-09T03:58:32;96785.69;;;6.11;100.00
2397;BME280;1209;48.410;9.054;2023-04-09T04:00:57;96781.88;;;6.15;100.00
2397;BME280;1209;48.410;9.054;2023-04-09T04:03:22;96778.28;;;5.96;100.00
2397;BME280;1209;48.410;9.054;2023-04-09T04:05:47;96784.13;;;5.89;100.00
2397;BME280;1209;48.410;9.054;2023-04-09T04:08:13;96786.03;;;5.87;100.00
2397;BME280;1209;48.410;9.054;2023-04-09T04:10:38;96792.47;;;5.92;100.00
2397;BME280;1209;48.410;9.054;2023-04-09T04:13:05;96796.09;;;5.80;100.00
2397;BME280;1209;48.410;9.054;2023-04-09T04:15:32;96792.94;;;5.77;100.00
2397;BME280;1209;48.410;9.054;2023-04-09T04:17:57;96792.56;;;5.81;100.00
2397;BME280;1209;48.410;9.054;2023-04-09T04:20:22;96795.44;;;5.88;100.00
2397;BME280;1209;48.410;9.054;2023-04-09T04:22:48;96796.03;;;5.91;100.00
2397;BME280;1209;48.410;9.054;2023-04-09T04:25:13;96796.66;;;5.84;100.00
2397;BME280;1209;48.410;9.054;2023-04-09T04:27:41;96795.69;;;5.85;100.00
2397;BME280;1209;48.410;9.054;2023-04-09T04:30:07;96795.94;;;5.72;100.00
2397;BME280;1209;48.410;9.054;2023-04-09T04:32:33;96800.63;;;5.88;100.00
2397;BME280;1209;48.410;9.054;2023-04-09T04:34:58;96800.47;;;5.80;100.00
2397;BME280;1209;48.410;9.054;2023-04-09T04:37:24;96802.72;;;5.94;100.00
2397;BME280;1209;48.410;9.054;2023-04-09T04:39:49;96807.63;;;5.97;100.00
2397;BME280;1209;48.410;9.054;2023-04-09T04:42:15;96806.81;;;6.06;100.00
2397;BME280;1209;48.410;9.054;2023-04-09T04:44:40;96807.34;;;5.90;100.00
2397;BME280;1209;48.410;9.054;2023-04-09T04:47:06;96807.63;;;5.97;100.00
2397;BME280;1209;48.410;9.054;2023-04-09T04:49:31;96807.09;;;6.03;100.00
2397;BME280;1209;48.410;9.054;2023-04-09T04:51:56;96817.19;;;5.96;100.00
2397;BME280;1209;48.410;9.054;2023-04-09T04:54:21;96810.22;;;5.97;100.00
2397;BME280;1209;48.410;9.054;2023-04-09T04:56:47;96815.69;;;6.04;100.00
2397;BME280;1209;48.410;9.054;2023-04-09T04:59:12;96808.19;;;6.00;100.00
2397;BME280;1209;48.410;9.054;2023-04-09T05:01:37;96808.59;;;6.06;100.00
2397;BME280;1209;48.410;9.054;2023-04-09T05:04:02;96814.06;;;6.03;100.00
2397;BME280;1209;48.410;9.054;2023-04-09T05:06:28;96802.59;;;6.05;100.00
2397;BME280;1209;48.410;9.054;2023-04-09T05:08:54;96806.28;;;6.03;100.00
2397;BME280;1209;48.410;9.054;2023-04-09T05:11:22;96814.06;;;6.12;100.00
2397;BME280;1209;48.410;9.054;2023-04-09T05:13:47;96805.19;;;6.15;100.00
2397;BME280;1209;48.410;9.054;2023-04-09T05:16:16;96808.38;;;6.18;100.00
2397;BME280;1209;48.410;9.054;2023-04-09T05:18:42;96810.69;;;6.21;100.00
2397;BME280;1209;48.410;9.054;2023-04-09T05:21:07;96815.47;;;6.26;100.00
2397;BME280;1209;48.410;9.054;2023-04-09T05:23:33;96817.94;;;6.27;100.00
2397;BME280;1209;48.410;9.054;2023-04-09T05:25:58;96816.19;;;6.38;100.00
2397;BME280;1209;48.410;9.054;2023-04-09T05:28:23;96817.13;;;6.37;100.00
2397;BME280;1209;48.410;9.054;2023-04-09T05:30:48;96823.81;;;6.29;100.00
2397;BME280;1209;48.410;9.054;2023-04-09T05:33:14;96816.16;;;6.28;100.00
2397;BME280;1209;48.410;9.054;2023-04-09T05:35:40;96816.88;;;6.40;100.00
2397;BME280;1209;48.410;9.054;2023-04-09T05:38:05;96821.09;;;6.31;100.00
2397;BME280;1209;48.410;9.054;2023-04-09T05:40:30;96832.56;;;6.28;100.00
2397;BME280;1209;48.410;9.054;2023-04-09T05:42:56;96820.41;;;6.29;100.00
2397;BME280;1209;48.410;9.054;2023-04-09T05:45:21;96815.34;;;6.27;100.00
2397;BME280;1209;48.410;9.054;2023-04-09T05:47:46;96822.59;;;6.34;100.00
2397;BME280;1209;48.410;9.054;2023-04-09T05:50:12;96815.91;;;6.41;100.00
2397;BME280;1209;48.410;9.054;2023-04-09T05:52:37;96823.81;;;6.49;100.00
2397;BME280;1209;48.410;9.054;2023-04-09T05:55:03;96821.50;;;6.55;100.00
2397;BME280;1209;48.410;9.054;2023-04-09T05:57:29;96819.59;;;6.57;100.00
2397;BME280;1209;48.410;9.054;2023-04-09T05:59:55;96814.53;;;6.56;100.00
2397;BME280;1209;48.410;9.054;2023-04-09T06:02:21;96812.50;;;6.59;100.00
2397;BME280;1209;48.410;9.054;2023-04-09T06:04:46;96816.22;;;6.67;100.00
2397;BME280;1209;48.410;9.054;2023-04-09T06:07:11;96815.41;;;6.66;100.00
2397;BME280;1209;48.410;9.054;2023-04-09T06:09:37;96820.31;;;6.69;100.00
2397;BME280;1209;48.410;9.054;2023-04-09T06:12:02;96815.66;;;6.73;100.00
2397;BME280;1209;48.410;9.054;2023-04-09T06:14:28;96817.84;;;6.77;100.00
2397;BME280;1209;48.410;9.054;2023-04-09T06:16:53;96816.47;;;6.73;100.00
2397;BME280;1209;48.410;9.054;2023-04-09T06:19:19;96815.25;;;6.68;100.00
2397;BME280;1209;48.410;9.054;2023-04-09T06:21:44;96821.41;;;6.67;100.00
2397;BME280;1209;48.410;9.054;2023-04-09T06:24:09;96816.88;;;6.59;100.00
2397;BME280;1209;48.410;9.054;2023-04-09T06:26:35;96815.22;;;6.58;100.00
2397;BME280;1209;48.410;9.054;2023-04-09T06:29:00;96810.34;;;6.65;100.00
2397;BME280;1209;48.410;9.054;2023-04-09T06:31:26;96809.78;;;6.90;100.00
2397;BME280;1209;48.410;9.054;2023-04-09T06:33:51;96815.50;;;7.03;100.00
2397;BME280;1209;48.410;9.054;2023-04-09T06:36:16;96808.13;;;6.99;100.00
2397;BME280;1209;48.410;9.054;2023-04-09T06:38:42;96804.94;;;7.24;100.00
2397;BME280;1209;48.410;9.054;2023-04-09T06:41:07;96811.56;;;7.46;100.00
2397;BME280;1209;48.410;9.054;2023-04-09T06:43:33;96816.75;;;7.55;100.00
2397;BME280;1209;48.410;9.054;2023-04-09T06:45:58;96812.97;;;7.77;100.00
2397;BME280;1209;48.410;9.054;2023-04-09T06:48:23;96812.66;;;7.90;100.00
2397;BME280;1209;48.410;9.054;2023-04-09T06:50:49;96823.19;;;7.88;100.00
2397;BME280;1209;48.410;9.054;2023-04-09T06:53:14;96817.03;;;7.89;100.00
2397;BME280;1209;48.410;9.054;2023-04-09T06:55:40;96820.06;;;7.85;100.00
2397;BME280;1209;48.410;9.054;2023-04-09T06:58:06;96816.59;;;7.94;100.00
2397;BME280;1209;48.410;9.054;2023-04-09T07:00:31;96815.78;;;8.21;100.00
2397;BME280;1209;48.410;9.054;2023-04-09T07:02:56;96812.47;;;8.46;100.00
2397;BME280;1209;48.410;9.054;2023-04-09T07:05:22;96808.28;;;8.63;100.00
2397;BME280;1209;48.410;9.054;2023-04-09T07:07:48;96813.41;;;8.55;100.00
2397;BME280;1209;48.410;9.054;2023-04-09T07:10:13;96814.66;;;8.87;100.00
2397;BME280;1209;48.410;9.054;2023-04-09T07:12:39;96813.38;;;8.91;100.00
2397;BME280;1209;48.410;9.054;2023-04-09T07:15:05;96817.47;;;9.11;100.00
2397;BME280;1209;48.410;9.054;2023-04-09T07:17:31;96809.34;;;9.14;100.00
2397;BME280;1209;48.410;9.054;2023-04-09T07:19:57;96816.97;;;9.33;100.00
2397;BME280;1209;48.410;9.054;2023-04-09T07:22:23;96822.31;;;9.32;100.00
2397;BME280;1209;48.410;9.054;2023-04-09T07:24:49;96817.59;;;9.53;100.00
2397;BME280;1209;48.410;9.054;2023-04-09T07:27:22;96822.34;;;9.92;100.00
2397;BME280;1209;48.410;9.054;2023-04-09T07:29:48;96821.59;;;9.73;100.00
2397;BME280;1209;48.410;9.054;2023-04-09T07:32:13;96824.75;;;9.85;100.00
2397;BME280;1209;48.410;9.054;2023-04-09T07:34:40;96831.69;;;9.94;100.00
2397;BME280;1209;48.410;9.054;2023-04-09T07:37:05;96834.81;;;10.06;100.00
2397;BME280;1209;48.410;9.054;2023-04-09T07:39:30;96832.22;;;9.80;100.00
2397;BME280;1209;48.410;9.054;2023-04-09T07:41:56;96839.66;;;10.27;100.00
2397;BME280;1209;48.410;9.054;2023-04-09T07:44:21;96836.75;;;10.04;100.00
2397;BME280;1209;48.410;9.054;2023-04-09T07:46:47;96837.25;;;9.99;100.00
2397;BME280;1209;48.410;9.054;2023-04-09T07:49:12;96838.09;;;9.48;100.00
2397;BME280;1209;48.410;9.054;2023-04-09T07:51:38;96840.38;;;9.77;100.00
2397;BME280;1209;48.410;9.054;2023-04-09T07:54:03;96840.13;;;9.36;100.00
2397;BME280;1209;48.410;9.054;2023-04-09T07:56:29;96837.81;;;9.33;100.00
2397;BME280;1209;48.410;9.054;2023-04-09T07:58:54;96836.47;;;9.29;100.00
2397;BME280;1209;48.410;9.054;2023-04-09T08:01:20;96836.63;;;10.14;100.00
2397;BME280;1209;48.410;9.054;2023-04-09T08:03:49;96832.34;;;9.96;100.00
2397;BME280;1209;48.410;9.054;2023-04-09T08:06:14;96831.91;;;10.09;100.00
2397;BME280;1209;48.410;9.054;2023-04-09T08:08:40;96830.22;;;10.00;100.00
2397;BME280;1209;48.410;9.054;2023-04-09T08:11:05;96838.94;;;9.83;100.00
2397;BME280;1209;48.410;9.054;2023-04-09T08:13:31;96840.72;;;10.16;100.00
2397;BME280;1209;48.410;9.054;2023-04-09T08:15:59;96835.78;;;10.05;100.00
2397;BME280;1209;48.410;9.054;2023-04-09T08:18:24;96840.97;;;9.97;100.00
2397;BME280;1209;48.410;9.054;2023-04-09T08:20:50;96837.84;;;10.27;100.00
2397;BME280;1209;48.410;9.054;2023-04-09T08:23:15;96840.44;;;10.86;99.75
2397;BME280;1209;48.410;9.054;2023-04-09T08:25:40;96836.88;;;11.35;100.00
2397;BME280;1209;48.410;9.054;2023-04-09T08:28:06;96842.06;;;11.52;95.99
2397;BME280;1209;48.410;9.054;2023-04-09T08:30:32;96840.72;;;11.88;94.35
2397;BME280;1209;48.410;9.054;2023-04-09T08:32:59;96845.81;;;11.57;96.81
2397;BME280;1209;48.410;9.054;2023-04-09T08:35:25;96846.25;;;12.02;90.90
2397;BME280;1209;48.410;9.054;2023-04-09T08:37:50;96856.38;;;12.44;75.16
2397;BME280;1209;48.410;9.054;2023-04-09T08:40:15;96848.91;;;11.69;71.93
2397;BME280;1209;48.410;9.054;2023-04-09T08:42:43;96851.09;;;11.41;72.06
2397;BME280;1209;48.410;9.054;2023-04-09T08:45:11;96860.56;;;11.10;70.96
2397;BME280;1209;48.410;9.054;2023-04-09T08:47:39;96866.69;;;10.60;74.28
2397;BME280;1209;48.410;9.054;2023-04-09T08:50:05;96871.19;;;10.07;76.68
2397;BME280;1209;48.410;9.054;2023-04-09T08:52:32;96859.47;;;10.12;79.84
2397;BME280;1209;48.410;9.054;2023-04-09T08:54:58;96856.50;;;10.06;80.83
2397;BME280;1209;48.410;9.054;2023-04-09T08:57:23;96869.28;;;10.18;82.61
2397;BME280;1209;48.410;9.054;2023-04-09T08:59:48;96873.25;;;9.96;81.29
2397;BME280;1209;48.410;9.054;2023-04-09T09:02:13;96869.09;;;10.11;82.63
2397;BME280;1209;48.410;9.054;2023-04-09T09:04:47;96878.97;;;10.25;83.87
2397;BME280;1209;48.410;9.054;2023-04-09T09:07:13;96876.56;;;10.06;83.08
2397;BME280;1209;48.410;9.054;2023-04-09T09:09:51;96881.28;;;10.02;83.03
2397;BME280;1209;48.410;9.054;2023-04-09T09:12:41;96881.03;;;9.88;79.79
2397;BME280;1209;48.410;9.054;2023-04-09T09:15:26;96877.50;;;9.97;79.76
2397;BME280;1209;48.410;9.054;2023-04-09T09:17:56;96878.56;;;10.12;78.19
2397;BME280;1209;48.410;9.054;2023-04-09T09:20:23;96879.19;;;10.06;80.35
2397;BME280;1209;48.410;9.054;2023-04-09T09:22:50;96879.97;;;9.98;81.24
2397;BME280;1209;48.410;9.054;2023-04-09T09:25:15;96888.03;;;9.87;84.72
2397;BME280;1209;48.410;9.054;2023-04-09T09:27:40;96881.47;;;9.83;86.69
2397;BME280;1209;48.410;9.054;2023-04-09T09:30:07;96883.31;;;9.91;86.79
2397;BME280;1209;48.410;9.054;2023-04-09T09:32:35;96881.59;;;9.73;85.23
2397;BME280;1209;48.410;9.054;2023-04-09T09:35:05;96877.50;;;9.71;82.65
2397;BME280;1209;48.410;9.054;2023-04-09T09:37:32;96882.34;;;9.92;84.14
2397;BME280;1209;48.410;9.054;2023-04-09T09:39:58;96885.63;;;9.68;86.01
2397;BME280;1209;48.410;9.054;2023-04-09T09:42:24;96888.91;;;9.70;87.29
2397;BME280;1209;48.410;9.054;2023-04-09T09:44:52;96894.44;;;9.67;89.68
2397;BME280;1209;48.410;9.054;2023-04-09T09:47:18;96890.91;;;9.76;89.96
2397;BME280;1209;48.410;9.054;2023-04-09T09:49:44;96894.78;;;9.72;88.02
2397;BME280;1209;48.410;9.054;2023-04-09T09:52:10;96897.34;;;9.64;89.46
2397;BME280;1209;48.410;9.054;2023-04-09T09:54:39;96896.13;;;9.76;88.57
2397;BME280;1209;48.410;9.054;2023-04-09T09:57:09;96894.56;;;9.91;85.19
2397;BME280;1209;48.410;9.054;2023-04-09T09:59:40;96892.88;;;10.08;83.63
2397;BME280;1209;48.410;9.054;2023-04-09T10:02:17;96894.28;;;9.94;84.29
2397;BME280;1209;48.410;9.054;2023-04-09T10:04:43;96891.06;;;10.00;83.74
2397;BME280;1209;48.410;9.054;2023-04-09T10:07:08;96899.03;;;9.73;85.29
2397;BME280;1209;48.410;9.054;2023-04-09T10:09:36;96895.41;;;9.66;84.07
2397;BME280;1209;48.410;9.054;2023-04-09T10:12:05;96894.13;;;9.70;86.97
2397;BME280;1209;48.410;9.054;2023-04-09T10:14:32;96898.88;;;9.49;87.07
2397;BME280;1209;48.410;9.054;2023-04-09T10:16:58;96897.97;;;9.58;88.88
2397;BME280;1209;48.410;9.054;2023-04-09T10:19:24;96900.00;;;9.28;95.32
2397;BME280;1209;48.410;9.054;2023-04-09T10:21:55;96901.78;;;9.28;98.34
2397;BME280;1209;48.410;9.054;2023-04-09T10:24:22;96900.25;;;8.99;99.03
2397;BME280;1209;48.410;9.054;2023-04-09T10:26:48;96909.00;;;8.80;100.00
2397;BME280;1209;48.410;9.054;2023-04-09T10:29:14;96905.81;;;8.87;100.00
2397;BME280;1209;48.410;9.054;2023-04-09T10:34:15;96907.78;;;9.02;100.00
2397;BME280;1209;48.410;9.054;2023-04-09T10:36:43;96900.09;;;9.01;97.35
2397;BME280;1209;48.410;9.054;2023-04-09T10:39:12;96896.50;;;9.20;97.61
2397;BME280;1209;48.410;9.054;2023-04-09T10:41:41;96894.72;;;9.20;94.89
2397;BME280;1209;48.410;9.054;2023-04-09T10:44:22;96892.31;;;9.44;95.53
2397;BME280;1209;48.410;9.054;2023-04-09T10:46:48;96900.31;;;10.21;89.99
2397;BME280;1209;48.410;9.054;2023-04-09T10:49:16;96896.13;;;10.86;85.85
2397;BME280;1209;48.410;9.054;2023-04-09T10:52:08;96881.88;;;12.11;78.07
2397;BME280;1209;48.410;9.054;2023-04-09T10:54:52;96882.56;;;12.83;74.49
2397;BME280;1209;48.410;9.054;2023-04-09T10:57:21;96879.66;;;13.46;69.66
2397;BME280;1209;48.410;9.054;2023-04-09T10:59:51;96877.38;;;13.96;68.79
2397;BME280;1209;48.410;9.054;2023-04-09T11:05:32;96864.25;;;12.98;68.22
2397;BME280;1209;48.410;9.054;2023-04-09T11:08:08;96862.59;;;12.04;66.13
2397;BME280;1209;48.410;9.054;2023-04-09T11:10:35;96867.41;;;11.84;66.62
2397;BME280;1209;48.410;9.054;2023-04-09T11:13:02;96862.16;;;11.84;72.09
2397;BME280;1209;48.410;9.054;2023-04-09T11:15:28;96856.28;;;13.37;63.99
2397;BME280;1209;48.410;9.054;2023-04-09T11:17:53;96864.09;;;13.45;64.22
2397;BME280;1209;48.410;9.054;2023-04-09T11:20:20;96859.81;;;12.44;66.07
2397;BME280;1209;48.410;9.054;2023-04-09T11:22:47;96851.09;;;12.13;68.05
2397;BME280;1209;48.410;9.054;2023-04-09T11:25:20;96859.69;;;11.90;69.75
2397;BME280;1209;48.410;9.054;2023-04-09T11:27:46;96853.22;;;12.17;66.61
2397;BME280;1209;48.410;9.054;2023-04-09T11:30:12;96854.41;;;12.07;65.15
2397;BME280;1209;48.410;9.054;2023-04-09T11:32:38;96849.16;;;12.07;67.09
2397;BME280;1209;48.410;9.054;2023-04-09T11:35:04;96847.28;;;12.32;62.39
2397;BME280;1209;48.410;9.054;2023-04-09T11:37:29;96842.75;;;12.79;62.47
2397;BME280;1209;48.410;9.054;2023-04-09T11:39:55;96851.50;;;12.95;60.95
2397;BME280;1209;48.410;9.054;2023-04-09T11:42:22;96850.69;;;12.94;58.94
2397;BME280;1209;48.410;9.054;2023-04-09T11:44:49;96856.72;;;13.26;58.38
2397;BME280;1209;48.410;9.054;2023-04-09T11:47:16;96853.16;;;12.65;58.27
2397;BME280;1209;48.410;9.054;2023-04-09T11:49:42;96856.22;;;11.98;59.19
2397;BME280;1209;48.410;9.054;2023-04-09T11:52:08;96848.22;;;12.39;61.40
2397;BME280;1209;48.410;9.054;2023-04-09T11:54:35;96867.41;;;12.62;59.76
2397;BME280;1209;48.410;9.054;2023-04-09T11:57:02;96850.47;;;12.73;59.53
2397;BME280;1209;48.410;9.054;2023-04-09T11:59:28;96858.50;;;12.48;59.46
2397;BME280;1209;48.410;9.054;2023-04-09T12:01:56;96855.47;;;12.90;58.83
2397;BME280;1209;48.410;9.054;2023-04-09T12:04:22;96858.03;;;13.21;57.82
2397;BME280;1209;48.410;9.054;2023-04-09T12:06:47;96851.97;;;12.98;57.55
2397;BME280;1209;48.410;9.054;2023-04-09T12:09:13;96855.00;;;12.87;58.32
2397;BME280;1209;48.410;9.054;2023-04-09T12:11:42;96850.34;;;13.20;57.34
2397;BME280;1209;48.410;9.054;2023-04-09T12:14:11;96851.66;;;12.70;56.35
2397;BME280;1209;48.410;9.054;2023-04-09T12:16:37;96845.22;;;13.64;57.83
2397;BME280;1209;48.410;9.054;2023-04-09T12:19:06;96854.00;;;13.71;55.86
2397;BME280;1209;48.410;9.054;2023-04-09T12:24:10;96850.50;;;12.96;57.48
2397;BME280;1209;48.410;9.054;2023-04-09T12:26:35;96850.00;;;12.77;60.81
2397;BME280;1209;48.410;9.054;2023-04-09T12:29:00;96846.41;;;12.70;61.54
2397;BME280;1209;48.410;9.054;2023-04-09T12:31:25;96841.38;;;12.91;58.35
2397;BME280;1209;48.410;9.054;2023-04-09T12:33:51;96841.19;;;13.39;56.75
2397;BME280;1209;48.410;9.054;2023-04-09T12:36:16;96839.44;;;14.13;56.12
2397;BME280;1209;48.410;9.054;2023-04-09T12:38:41;96844.66;;;14.93;55.40
2397;BME280;1209;48.410;9.054;2023-04-09T12:41:07;96836.00;;;15.42;53.29
2397;BME280;1209;48.410;9.054;2023-04-09T12:43:33;96840.44;;;15.97;52.94
2397;BME280;1209;48.410;9.054;2023-04-09T12:45:58;96824.25;;;16.42;52.50
2397;BME280;1209;48.410;9.054;2023-04-09T12:48:24;96829.19;;;15.26;52.71
2397;BME280;1209;48.410;9.054;2023-04-09T12:50:49;96828.47;;;14.09;53.11
2397;BME280;1209;48.410;9.054;2023-04-09T12:53:15;96831.91;;;14.10;53.03
2397;BME280;1209;48.410;9.054;2023-04-09T12:55:40;96830.47;;;14.22;55.64
2397;BME280;1209;48.410;9.054;2023-04-09T12:58:05;96828.88;;;14.72;56.26
2397;BME280;1209;48.410;9.054;2023-04-09T13:00:31;96827.56;;;15.04;55.32
2397;BME280;1209;48.410;9.054;2023-04-09T13:02:57;96815.16;;;15.47;55.23
2397;BME280;1209;48.410;9.054;2023-04-09T13:05:22;96807.09;;;15.77;54.71
2397;BME280;1209;48.410;9.054;2023-04-09T13:07:48;96809.28;;;14.24;53.54
2397;BME280;1209;48.410;9.054;2023-04-09T13:10:13;96807.22;;;14.91;54.67
2397;BME280;1209;48.410;9.054;2023-04-09T13:12:38;96804.50;;;16.18;52.85
2397;BME280;1209;48.410;9.054;2023-04-09T13:15:04;96805.53;;;16.23;50.29
2397;BME280;1209;48.410;9.054;2023-04-09T13:17:29;96803.72;;;16.24;51.25
2397;BME280;1209;48.410;9.054;2023-04-09T13:19:55;96798.91;;;16.41;52.85
2397;BME280;1209;48.410;9.054;2023-04-09T13:22:20;96792.16;;;15.28;53.48
2397;BME280;1209;48.410;9.054;2023-04-09T13:24:45;96794.25;;;16.01;49.70
2397;BME280;1209;48.410;9.054;2023-04-09T13:27:10;96787.22;;;16.09;49.63
2397;BME280;1209;48.410;9.054;2023-04-09T13:29:36;96789.25;;;16.61;50.82
2397;BME280;1209;48.410;9.054;2023-04-09T13:32:01;96783.41;;;16.18;48.28